Camp Douglas, WI (54618)

7:17 AM CDT on May 28, 2017 (GMT -0500)
In Town | | Change Station

Elev 909 ft 43.88 °N, 90.17 °W | Updated 21 seconds ago

Scattered Clouds
Scattered Clouds
57.2 °F
Feels Like 57.2 °F
N
0.0
Wind Variable Wind from ESE

Today
High -- | Low -- °F
--% Chance of Precip.
Yesterday
High -- | Low -- °F
Precip. -- in
Pressure 29.79 in
Visibility 10.0 miles
Clouds Scattered Clouds 9000 ft
Dew Point 54 °F
Humidity 91%
Rainfall 0.00 in
Snow Depth Not available.
5:23 AM 8:33 PM
Waxing Crescent, 11% visible
METAR KVOK 281158Z AUTO 10003KT 10SM SCT090 13/13 A2978 RMK AO2 RAE37DZB37E39 SLP086 P0003 60005 70005 T01310131 10144 20127 56007
Pressure 29.79 in
Visibility 10.0 miles
Clouds Scattered Clouds 9000 ft
Dew Point 54 °F
Humidity 91%
Rainfall 0.00 in
Snow Depth Not available.
5:23 AM 8:33 PM
Waxing Crescent, 11% visible
METAR KVOK 281158Z AUTO 10003KT 10SM SCT090 13/13 A2978 RMK AO2 RAE37DZB37E39 SLP086 P0003 60005 70005 T01310131 10144 20127 56007

Get Severe Weather Alerts

Thanks for signing up!

Be on the lookout for a verification email in your inbox.

You'll start receiving the daily forecast at 6 AM.

×

10-Day Weather Forecast

Almanac

Astronomy

May. 28, 2017 Rise Set
Actual Time
Civil Twilight
Nautical Twilight
Astronomical Twilight
Moon
Length of Visible Light
Length of Day
Tomorrow will be .
, % of the Moon is Illuminated

Today's Extremes

State Highs State Lows

Community

WunderPhotos

Category 6

Welcome to Category 6. This is the collective home for Weather Underground's featured writeups by Dr. Jeff Masters (right), Bob Henson (left), Chris Burt, and other regular contributors.

Nearby

Air Quality

  Air Quality AQ Index Pollutant
Not available.

Snow Depth

Station Depth Elevation

Earthquake Activity

City Distance Mag. Time & Date
Minimum magnitude displayed is 2.5.

Coastal Water Temperatures

Place Temperature

Stations

Nearby Weather Stations

Station Location Temp. Windchill Dew Point Humidity Wind Precip. Elev Updated Type
                   

Watches & Warnings

There are currently no watches in effect.